Terminal Aerodrome Forecast
Issued by NWS

Current Version | Previous Version | Text Only | Print | Product List | Glossary Off
Versions: 1 2 3 4 5 6 7 8 9 10 11 12 13 14 15 16 17 18 19 20

092
FTUS41 KILN 061501 AAA
TAFLUK
TAF AMD
KLUK 061501Z 0615/0712 35004KT 2SM -RA BR OVC006
     FM061900 30007KT 4SM -DZ BR OVC009
     FM062100 30012G20KT P6SM OVC015
     FM070200 30004KT P6SM OVC018=

USA.gov is the U.S. government's official web portal to all federal, state and local government web resources and services.